createdAt,value
2022-10-20T00:00:56.915Z,6.88
2022-10-20T00:03:24.997Z,6.53
2022-10-20T00:05:51.811Z,6.05
2022-10-20T00:08:18.562Z,7.00
2022-10-20T00:10:55.604Z,6.05
2022-10-20T00:13:23.259Z,6.68
2022-10-20T00:15:51.180Z,6.20
2022-10-20T00:18:17.943Z,6.00
2022-10-20T00:20:44.765Z,6.22
2022-10-20T00:23:11.483Z,6.53
2022-10-20T00:25:38.283Z,6.80
2022-10-20T00:28:05.777Z,5.63
2022-10-20T00:30:33.932Z,5.50
2022-10-20T00:33:01.107Z,5.50
2022-10-20T00:35:27.685Z,5.50
2022-10-20T00:37:54.301Z,5.88
2022-10-20T00:40:20.968Z,5.30
2022-10-20T00:42:48.219Z,5.50
2022-10-20T00:45:17.716Z,6.47
2022-10-20T00:48:05.126Z,5.80
2022-10-20T00:50:41.703Z,5.63
2022-10-20T00:53:08.541Z,6.25
2022-10-20T00:55:40.534Z,5.60
2022-10-20T00:58:07.388Z,5.63
2022-10-20T01:00:34.412Z,6.32
2022-10-20T01:03:02.711Z,5.53
2022-10-20T01:05:29.344Z,5.13
2022-10-20T01:07:56.015Z,6.22
2022-10-20T01:10:25.393Z,5.68
2022-10-20T01:13:29.211Z,5.80
2022-10-20T01:16:09.433Z,5.03
2022-10-20T01:18:35.971Z,5.80
2022-10-20T01:21:26.594Z,5.00
2022-10-20T01:24:32.011Z,5.55
2022-10-20T01:27:33.099Z,5.55
2022-10-20T01:30:13.513Z,4.53
2022-10-20T01:33:04.842Z,5.15
2022-10-20T01:35:55.088Z,5.38
2022-10-20T01:38:42.377Z,5.70
2022-10-20T01:41:21.603Z,5.40
2022-10-20T01:43:49.900Z,5.00
2022-10-20T01:46:21.691Z,5.60
2022-10-20T01:48:49.207Z,4.50
2022-10-20T01:51:15.955Z,4.65
2022-10-20T01:53:42.547Z,5.20
2022-10-20T01:56:18.338Z,4.80
2022-10-20T01:59:06.419Z,4.68
2022-10-20T02:01:41.896Z,4.40
2022-10-20T02:04:09.643Z,5.13
2022-10-20T02:06:47.647Z,5.18
2022-10-20T02:09:22.981Z,5.68
2022-10-20T02:12:13.498Z,4.70
2022-10-20T02:14:42.190Z,5.30
2022-10-20T02:17:14.240Z,4.90
2022-10-20T02:19:44.833Z,4.90
2022-10-20T02:22:14.105Z,4.60
2022-10-20T02:24:42.300Z,5.55
2022-10-20T02:27:21.022Z,5.10
2022-10-20T02:29:55.017Z,4.75
2022-10-20T02:32:22.966Z,5.18
2022-10-20T02:34:49.586Z,5.35
2022-10-20T02:39:48.101Z,4.20
2022-10-20T02:42:17.131Z,4.57
2022-10-20T02:44:44.078Z,4.72
2022-10-20T02:47:10.807Z,4.70
2022-10-20T02:49:37.378Z,3.55
2022-10-20T02:52:04.067Z,3.53
2022-10-20T02:54:30.642Z,4.85
2022-10-20T02:56:57.274Z,3.95
2022-10-20T02:59:23.918Z,5.38
2022-10-20T03:01:52.354Z,5.03
2022-10-20T03:04:19.077Z,3.90
2022-10-20T03:06:45.691Z,5.22
2022-10-20T03:09:12.545Z,4.70
2022-10-20T03:11:39.155Z,4.38
2022-10-20T03:14:05.770Z,4.75
2022-10-20T03:16:32.385Z,4.68
2022-10-20T03:19:03.356Z,4.78
2022-10-20T03:21:33.949Z,4.32
2022-10-20T03:24:00.682Z,4.88
2022-10-20T03:26:27.354Z,5.35
2022-10-20T03:28:53.967Z,5.68
2022-10-20T03:31:20.715Z,5.57
2022-10-20T03:33:47.311Z,5.93
2022-10-20T03:36:13.917Z,8.60
2022-10-20T03:38:43.329Z,5.47
2022-10-20T03:41:10.380Z,5.57
2022-10-20T03:43:39.124Z,4.68
2022-10-20T03:46:08.375Z,5.50
2022-10-20T03:48:35.712Z,4.85
2022-10-20T03:51:02.987Z,3.88
2022-10-20T03:53:30.182Z,5.57
2022-10-20T03:55:56.786Z,4.63
2022-10-20T03:58:23.714Z,4.13
2022-10-20T04:00:50.570Z,4.57
2022-10-20T04:03:17.199Z,4.63
2022-10-20T04:05:43.838Z,5.20
2022-10-20T04:08:10.508Z,5.07
2022-10-20T04:10:37.203Z,4.15
2022-10-20T04:13:04.034Z,5.10
2022-10-20T04:15:31.071Z,5.28
2022-10-20T04:17:58.110Z,5.38
2022-10-20T04:20:24.863Z,4.72
2022-10-20T04:22:51.544Z,5.15
2022-10-20T04:25:18.337Z,4.97
2022-10-20T04:27:44.972Z,4.82
2022-10-20T04:30:11.931Z,4.55
2022-10-20T04:32:38.522Z,4.47
2022-10-20T04:35:05.713Z,4.40
2022-10-20T04:37:32.358Z,4.72
2022-10-20T04:39:58.972Z,4.72
2022-10-20T04:42:25.756Z,4.60
2022-10-20T04:44:52.372Z,5.05
2022-10-20T04:47:18.983Z,4.35
2022-10-20T04:49:45.590Z,4.57
2022-10-20T04:52:12.142Z,4.43
2022-10-20T04:54:38.739Z,4.82
2022-10-20T04:57:06.297Z,4.53
2022-10-20T04:59:32.930Z,5.60
2022-10-20T05:01:59.550Z,4.70
2022-10-20T05:04:26.347Z,5.40
2022-10-20T05:06:52.983Z,4.82
2022-10-20T05:09:19.605Z,4.68
2022-10-20T05:11:46.484Z,4.97
2022-10-20T05:14:13.214Z,4.88
2022-10-20T05:16:39.778Z,5.10
2022-10-20T05:19:06.451Z,5.35
2022-10-20T05:21:33.281Z,4.72
2022-10-20T05:24:02.360Z,5.65
2022-10-20T05:26:34.465Z,5.57
2022-10-20T05:29:03.254Z,5.63
2022-10-20T05:31:29.931Z,5.85
2022-10-20T05:33:57.280Z,5.38
2022-10-20T05:36:26.778Z,5.95
2022-10-20T05:38:54.979Z,4.88
2022-10-20T05:41:27.358Z,4.68
2022-10-20T05:43:59.766Z,4.80
2022-10-20T05:46:28.437Z,6.00
2022-10-20T05:48:57.823Z,5.32
2022-10-20T05:51:27.996Z,6.63
2022-10-20T05:53:58.776Z,6.55
2022-10-20T05:56:26.858Z,7.22
2022-10-20T05:58:53.939Z,6.88
2022-10-20T06:01:38.809Z,5.97
2022-10-20T06:04:06.686Z,7.72
2022-10-20T06:06:33.270Z,6.40
2022-10-20T06:09:00.943Z,6.00
2022-10-20T06:11:28.582Z,6.70
2022-10-20T06:13:56.588Z,6.20
2022-10-20T06:16:25.414Z,6.80
2022-10-20T06:18:52.935Z,6.80
2022-10-20T06:21:25.831Z,6.60
2022-10-20T06:23:52.814Z,6.63
2022-10-20T06:26:21.716Z,7.25
2022-10-20T06:28:51.757Z,6.30
2022-10-20T06:31:30.397Z,7.85
2022-10-20T06:33:58.043Z,6.93
2022-10-20T06:36:25.590Z,6.68
2022-10-20T06:38:57.466Z,7.40
2022-10-20T06:41:26.136Z,7.93
2022-10-20T06:43:58.373Z,8.00
2022-10-20T06:46:27.244Z,6.65
2022-10-20T06:48:57.908Z,6.70
2022-10-20T06:51:26.161Z,6.45
2022-10-20T06:53:53.102Z,7.50
2022-10-20T06:56:22.966Z,6.30
2022-10-20T06:58:53.280Z,6.15
2022-10-20T07:01:24.967Z,7.05
2022-10-20T07:03:54.719Z,7.13
2022-10-20T07:06:27.119Z,6.63
2022-10-20T07:08:54.804Z,6.33
2022-10-20T07:11:24.479Z,8.43
2022-10-20T07:13:51.388Z,6.95
2022-10-20T07:16:20.554Z,7.78
2022-10-20T07:18:48.036Z,8.00
2022-10-20T07:21:17.357Z,7.10
2022-10-20T07:23:44.948Z,7.20
2022-10-20T07:26:16.002Z,7.35
2022-10-20T07:28:44.705Z,7.93
2022-10-20T07:31:32.512Z,7.65
2022-10-20T07:34:12.763Z,6.63
2022-10-20T07:36:43.288Z,7.22
2022-10-20T07:39:12.447Z,6.80
2022-10-20T07:41:39.754Z,6.80
2022-10-20T07:44:07.678Z,7.55
2022-10-20T07:46:34.971Z,6.38
2022-10-20T07:51:48.389Z,7.85
2022-10-20T07:54:15.033Z,7.05
2022-10-20T07:56:43.187Z,7.15
2022-10-20T07:59:11.671Z,6.88
2022-10-20T08:01:38.836Z,6.88
2022-10-20T08:04:05.438Z,7.70
2022-10-20T08:06:32.116Z,8.43
2022-10-20T08:09:00.256Z,6.43
2022-10-20T08:11:27.527Z,7.05
2022-10-20T08:13:54.148Z,6.50
2022-10-20T08:16:31.982Z,7.18
2022-10-20T08:21:47.863Z,6.93
2022-10-20T08:24:14.456Z,6.90
2022-10-20T08:26:41.057Z,7.85
2022-10-20T08:29:07.653Z,8.38
2022-10-20T08:31:34.249Z,7.78
2022-10-20T08:34:00.995Z,7.20
2022-10-20T08:36:30.677Z,8.00
2022-10-20T08:39:03.616Z,7.80
2022-10-20T08:41:55.445Z,7.55
2022-10-20T08:44:30.300Z,7.60
2022-10-20T08:46:58.124Z,8.05
2022-10-20T08:49:28.832Z,7.32
2022-10-20T08:51:55.499Z,6.90
2022-10-20T08:54:22.297Z,8.50
2022-10-20T08:56:48.905Z,7.78
2022-10-20T08:59:29.858Z,7.28
2022-10-20T09:01:57.989Z,7.43
2022-10-20T09:04:35.023Z,6.95
2022-10-20T09:07:10.935Z,7.43
2022-10-20T09:09:37.564Z,8.68
2022-10-20T09:12:12.403Z,7.50
2022-10-20T09:14:39.205Z,6.43
2022-10-20T09:17:13.148Z,8.07
2022-10-20T09:19:42.908Z,6.32
2022-10-20T09:22:13.594Z,6.13
2022-10-20T09:24:42.853Z,7.15
2022-10-20T09:27:23.419Z,7.13
2022-10-20T09:29:50.565Z,6.18
2022-10-20T09:35:13.562Z,6.30
2022-10-20T09:37:40.373Z,6.18
2022-10-20T09:40:15.451Z,5.55
2022-10-20T09:42:51.200Z,5.82
2022-10-20T09:45:30.140Z,6.65
2022-10-20T09:48:02.679Z,5.70
2022-10-20T09:50:38.539Z,5.70
2022-10-20T09:53:15.460Z,5.35
2022-10-20T09:55:47.584Z,5.18
2022-10-20T09:58:39.159Z,5.88
2022-10-20T10:01:11.780Z,4.97
2022-10-20T10:03:45.124Z,5.18
2022-10-20T10:06:38.990Z,4.72
2022-10-20T10:09:34.570Z,5.47
2022-10-20T10:12:05.331Z,6.18
2022-10-20T10:14:36.267Z,5.85
2022-10-20T10:17:03.132Z,5.60
2022-10-20T10:19:33.120Z,5.40
2022-10-20T10:22:03.035Z,5.65
2022-10-20T10:24:32.629Z,5.00
2022-10-20T10:26:59.762Z,5.07
2022-10-20T10:29:33.751Z,5.35
2022-10-20T10:32:00.317Z,5.18
2022-10-20T10:34:56.049Z,4.80
2022-10-20T10:37:23.004Z,4.80
2022-10-20T10:39:49.838Z,5.30
2022-10-20T10:42:54.961Z,5.28
2022-10-20T10:45:38.451Z,4.90
2022-10-20T10:48:29.002Z,4.85
2022-10-20T10:51:08.848Z,4.70
2022-10-20T10:53:58.514Z,3.83
2022-10-20T10:56:42.319Z,4.40
2022-10-20T10:59:17.789Z,4.45
2022-10-20T11:02:16.776Z,4.50
2022-10-20T11:04:55.339Z,4.43
2022-10-20T11:07:59.997Z,4.07
2022-10-20T11:10:54.842Z,3.97
2022-10-20T11:13:48.609Z,4.13
2022-10-20T11:16:33.681Z,4.40
2022-10-20T11:19:37.620Z,4.03
2022-10-20T11:22:56.898Z,4.43
2022-10-20T11:25:46.924Z,4.82
2022-10-20T11:28:29.553Z,4.43
2022-10-20T11:30:59.100Z,4.28
2022-10-20T11:33:39.281Z,4.40
2022-10-20T11:36:19.406Z,4.20
2022-10-20T11:38:50.986Z,3.88
2022-10-20T11:41:31.266Z,4.03
2022-10-20T11:44:06.802Z,4.63
2022-10-20T11:46:52.365Z,4.63
2022-10-20T11:49:19.356Z,4.30
2022-10-20T11:52:05.010Z,4.55
2022-10-20T11:54:34.435Z,3.75
2022-10-20T11:57:12.889Z,4.40
2022-10-20T11:59:39.453Z,4.00
2022-10-20T12:02:30.183Z,3.83
2022-10-20T12:05:15.585Z,4.90
2022-10-20T12:07:54.177Z,4.47
2022-10-20T12:10:44.012Z,4.80
2022-10-20T12:13:31.508Z,4.22
2022-10-20T12:15:58.195Z,4.40
2022-10-20T12:18:35.927Z,4.63
2022-10-20T12:21:05.673Z,4.95
2022-10-20T12:23:45.078Z,5.38
2022-10-20T12:27:01.991Z,4.40
2022-10-20T12:29:31.126Z,4.13
2022-10-20T12:32:24.361Z,4.93
2022-10-20T12:34:57.871Z,5.10
2022-10-20T12:37:27.180Z,5.00
2022-10-20T12:39:56.166Z,4.63
2022-10-20T12:42:33.406Z,5.38
2022-10-20T12:45:07.026Z,5.15
2022-10-20T12:47:36.983Z,5.00
2022-10-20T12:50:33.869Z,4.93
2022-10-20T12:53:29.610Z,5.60
2022-10-20T12:56:08.349Z,5.03
2022-10-20T12:58:37.447Z,5.63
2022-10-20T13:01:11.059Z,5.13
2022-10-20T13:03:49.095Z,5.30
2022-10-20T13:06:26.297Z,4.78
2022-10-20T13:09:21.119Z,6.20
2022-10-20T13:11:59.501Z,5.78
2022-10-20T13:14:48.607Z,5.00
2022-10-20T13:17:50.345Z,5.80
2022-10-20T13:20:45.798Z,6.18
2022-10-20T13:23:17.474Z,5.72
2022-10-20T13:25:44.036Z,4.45
2022-10-20T13:28:13.366Z,5.30
2022-10-20T13:30:55.190Z,5.28
2022-10-20T13:34:03.182Z,5.20
2022-10-20T13:36:47.964Z,5.60
2022-10-20T13:39:45.600Z,6.22
2022-10-20T13:42:21.165Z,5.32
2022-10-20T13:45:11.542Z,5.68
2022-10-20T13:47:47.119Z,5.00
2022-10-20T13:50:28.043Z,4.88
2022-10-20T13:52:57.808Z,5.25
2022-10-20T13:55:30.530Z,6.45
2022-10-20T13:58:03.653Z,5.60
2022-10-20T14:00:33.180Z,5.47
2022-10-20T14:03:05.093Z,5.55
2022-10-20T14:05:39.251Z,5.82
2022-10-20T14:08:11.523Z,5.90
2022-10-20T14:10:58.498Z,5.03
2022-10-20T14:13:29.131Z,5.65
2022-10-20T14:15:58.258Z,6.38
2022-10-20T14:18:27.943Z,7.00
2022-10-20T14:21:03.990Z,5.40
2022-10-20T14:23:50.826Z,6.57
2022-10-20T14:26:21.590Z,6.50
2022-10-20T14:28:50.312Z,5.68
2022-10-20T14:31:22.042Z,6.13
2022-10-20T14:33:51.554Z,6.65
2022-10-20T14:39:01.153Z,6.85
2022-10-20T14:41:33.852Z,5.28
2022-10-20T14:44:14.756Z,5.50
2022-10-20T14:46:50.490Z,6.00
2022-10-20T14:49:22.826Z,6.78
2022-10-20T14:51:59.433Z,5.22
2022-10-20T14:54:37.932Z,5.60
2022-10-20T14:57:10.470Z,6.88
2022-10-20T14:59:56.139Z,7.10
2022-10-20T15:02:25.278Z,6.68
2022-10-20T15:04:54.966Z,5.82
2022-10-20T15:07:32.923Z,5.80
2022-10-20T15:10:07.458Z,6.72
2022-10-20T15:12:36.984Z,7.47
2022-10-20T15:15:11.946Z,6.20
2022-10-20T15:17:47.929Z,7.20
2022-10-20T15:20:40.161Z,6.90
2022-10-20T15:23:20.066Z,6.07
2022-10-20T15:25:58.932Z,6.18
2022-10-20T15:28:45.998Z,6.68
2022-10-20T15:31:12.546Z,7.55
2022-10-20T15:33:39.854Z,7.68
2022-10-20T15:36:15.587Z,7.90
2022-10-20T15:38:43.371Z,8.15
2022-10-20T15:41:22.310Z,7.65
2022-10-20T15:43:49.139Z,8.15
2022-10-20T15:46:17.335Z,9.05
2022-10-20T15:48:44.851Z,8.70
2022-10-20T15:51:17.935Z,6.38
2022-10-20T15:53:47.030Z,8.98
2022-10-20T15:56:13.615Z,8.82
2022-10-20T15:58:40.228Z,9.35
2022-10-20T16:01:07.858Z,7.68
2022-10-20T16:03:35.806Z,11.45
2022-10-20T16:06:02.365Z,8.45
2022-10-20T16:08:29.064Z,8.80
2022-10-20T16:10:56.287Z,5.90
2022-10-20T16:13:23.030Z,8.77
2022-10-20T16:15:49.611Z,11.23
2022-10-20T16:18:16.184Z,8.18
2022-10-20T16:20:42.779Z,10.18
2022-10-20T16:23:09.361Z,8.35
2022-10-20T16:25:39.889Z,11.93
2022-10-20T16:28:07.277Z,9.95
2022-10-20T16:30:33.994Z,9.38
2022-10-20T16:33:00.564Z,9.25
2022-10-20T16:35:27.337Z,8.57
2022-10-20T16:37:53.946Z,11.48
2022-10-20T16:40:20.636Z,9.38
2022-10-20T16:42:47.218Z,8.48
2022-10-20T16:45:13.898Z,8.95
2022-10-20T16:47:40.986Z,9.70
2022-10-20T16:50:08.491Z,9.25
2022-10-20T16:52:35.163Z,8.50
2022-10-20T16:55:01.902Z,9.18
2022-10-20T16:57:29.661Z,18.08
2022-10-20T16:59:56.681Z,11.07
2022-10-20T17:02:23.386Z,7.15
2022-10-20T17:04:50.464Z,14.07
2022-10-20T17:07:17.876Z,12.38
2022-10-20T17:09:44.483Z,8.93
2022-10-20T17:12:11.104Z,10.60
2022-10-20T17:14:38.442Z,14.25
2022-10-20T17:17:05.040Z,10.23
2022-10-20T17:19:31.624Z,12.00
2022-10-20T17:21:58.283Z,18.15
2022-10-20T17:24:24.920Z,16.00
2022-10-20T17:26:51.754Z,12.60
2022-10-20T17:29:23.705Z,12.82
2022-10-20T17:31:52.581Z,15.18
2022-10-20T17:34:19.258Z,10.90
2022-10-20T17:36:45.851Z,14.95
2022-10-20T17:39:16.367Z,17.00
2022-10-20T17:41:43.679Z,20.63
2022-10-20T17:44:10.606Z,10.88
2022-10-20T17:46:37.241Z,30.08
2022-10-20T17:49:03.999Z,10.63
2022-10-20T17:51:33.693Z,13.95
2022-10-20T17:54:01.898Z,21.95
2022-10-20T17:56:35.347Z,41.63
2022-10-20T17:59:03.929Z,56.75
2022-10-20T18:01:36.484Z,46.33
2022-10-20T18:04:08.483Z,12.85
2022-10-20T18:06:35.922Z,24.40
2022-10-20T18:09:06.858Z,12.43
2022-10-20T18:11:35.114Z,10.32
2022-10-20T18:14:03.910Z,11.00
2022-10-20T18:16:32.962Z,14.85
2022-10-20T18:19:00.493Z,11.20
2022-10-20T18:21:29.332Z,10.63
2022-10-20T18:24:07.220Z,10.25
2022-10-20T18:26:35.499Z,9.20
2022-10-20T18:29:03.813Z,9.65
2022-10-20T18:31:32.332Z,9.25
2022-10-20T18:34:04.121Z,10.27
2022-10-20T18:36:36.889Z,9.70
2022-10-20T18:39:07.215Z,10.25
2022-10-20T18:41:38.019Z,9.55
2022-10-20T18:44:08.184Z,10.68
2022-10-20T18:46:35.087Z,11.48
2022-10-20T18:49:03.995Z,11.93
2022-10-20T18:51:31.713Z,11.70
2022-10-20T18:54:00.307Z,10.60
2022-10-20T18:56:28.871Z,10.70
2022-10-20T18:58:57.766Z,11.30
2022-10-20T19:01:27.192Z,11.73
2022-10-20T19:03:55.551Z,11.90
2022-10-20T19:06:31.040Z,10.73
2022-10-20T19:09:03.745Z,11.63
2022-10-20T19:11:32.679Z,11.73
2022-10-20T19:14:00.806Z,11.10
2022-10-20T19:16:30.410Z,11.93
2022-10-20T19:18:59.626Z,12.30
2022-10-20T19:21:28.465Z,13.25
2022-10-20T19:24:22.590Z,13.48
2022-10-20T19:27:21.298Z,11.52
2022-10-20T19:29:44.736Z,10.60
2022-10-20T19:32:12.173Z,12.27
2022-10-20T19:34:40.310Z,12.32
2022-10-20T19:37:08.330Z,12.15
2022-10-20T19:39:39.266Z,13.10
2022-10-20T19:42:07.534Z,11.32
2022-10-20T19:44:34.837Z,11.32
2022-10-20T19:47:01.834Z,10.85
2022-10-20T19:49:28.462Z,12.30
2022-10-20T19:51:55.165Z,10.63
2022-10-20T19:54:22.285Z,10.27
2022-10-20T19:56:48.932Z,12.98
2022-10-20T19:59:15.594Z,11.32
2022-10-20T20:01:42.263Z,11.65
2022-10-20T20:04:10.850Z,11.60
2022-10-20T20:06:37.958Z,10.68
2022-10-20T20:09:07.527Z,11.23
2022-10-20T20:11:36.441Z,10.38
2022-10-20T20:14:21.479Z,10.65
2022-10-20T20:16:48.189Z,10.60
2022-10-20T20:19:16.460Z,11.60
2022-10-20T20:21:43.291Z,10.05
2022-10-20T20:24:11.742Z,11.65
2022-10-20T20:26:38.335Z,10.35
2022-10-20T20:29:05.484Z,9.80
2022-10-20T20:31:33.080Z,10.70
2022-10-20T20:33:59.704Z,10.07
2022-10-20T20:36:27.878Z,11.18
2022-10-20T20:38:57.297Z,9.70
2022-10-20T20:41:26.104Z,11.00
2022-10-20T20:43:52.787Z,10.60
2022-10-20T20:46:22.354Z,10.63
2022-10-20T20:48:50.012Z,10.77
2022-10-20T20:51:17.091Z,9.85
2022-10-20T20:53:43.783Z,10.63
2022-10-20T20:56:14.254Z,10.23
2022-10-20T20:58:42.207Z,10.32
2022-10-20T21:01:12.932Z,9.90
2022-10-20T21:03:40.083Z,10.70
2022-10-20T21:06:09.291Z,10.18
2022-10-20T21:08:37.456Z,10.60
2022-10-20T21:11:25.619Z,10.35
2022-10-20T21:13:53.997Z,10.20
2022-10-20T21:16:26.359Z,11.00
2022-10-20T21:18:58.559Z,10.17
2022-10-20T21:21:31.175Z,9.93
2022-10-20T21:23:59.052Z,10.55
2022-10-20T21:26:26.934Z,11.63
2022-10-20T21:28:53.621Z,11.07
2022-10-20T21:31:22.847Z,11.23
2022-10-20T21:33:51.721Z,11.05
2022-10-20T21:36:19.816Z,12.05
2022-10-20T21:38:46.714Z,10.52
2022-10-20T21:41:16.126Z,10.85
2022-10-20T21:43:46.043Z,10.45
2022-10-20T21:46:28.825Z,10.45
2022-10-20T21:48:59.390Z,10.70
2022-10-20T21:51:27.422Z,9.88
2022-10-20T21:53:58.949Z,10.52
2022-10-20T21:56:25.788Z,10.35
2022-10-20T21:58:53.745Z,11.15
2022-10-20T22:01:23.366Z,9.52
2022-10-20T22:03:51.252Z,10.43
2022-10-20T22:06:19.807Z,10.32
2022-10-20T22:08:48.583Z,10.23
2022-10-20T22:11:26.962Z,11.38
2022-10-20T22:13:54.119Z,10.75
2022-10-20T22:16:23.956Z,10.80
2022-10-20T22:18:59.005Z,12.30
2022-10-20T22:21:26.126Z,13.10
2022-10-20T22:23:57.686Z,12.88
2022-10-20T22:26:27.019Z,12.10
2022-10-20T22:28:54.055Z,10.95
2022-10-20T22:31:21.329Z,12.82
2022-10-20T22:33:47.940Z,11.77
2022-10-20T22:36:14.550Z,10.55
2022-10-20T22:38:41.155Z,10.30
2022-10-20T22:41:07.984Z,11.10
2022-10-20T22:43:34.647Z,11.13
2022-10-20T22:46:01.264Z,10.10
2022-10-20T22:48:27.962Z,10.70
2022-10-20T22:50:54.623Z,11.05
2022-10-20T22:53:21.346Z,10.52
2022-10-20T22:55:47.923Z,10.57
2022-10-20T22:58:14.718Z,9.98
2022-10-20T23:00:43.779Z,11.30
2022-10-20T23:03:10.847Z,10.45
2022-10-20T23:05:37.586Z,9.73
2022-10-20T23:08:04.791Z,10.10
2022-10-20T23:10:31.511Z,9.65
2022-10-20T23:12:58.083Z,11.02
2022-10-20T23:15:24.753Z,10.43
2022-10-20T23:17:51.332Z,10.48
2022-10-20T23:20:18.215Z,11.55
2022-10-20T23:22:45.583Z,10.77
2022-10-20T23:25:12.150Z,10.75
2022-10-20T23:27:39.424Z,10.50
2022-10-20T23:30:06.653Z,10.70
2022-10-20T23:32:33.847Z,11.75
2022-10-20T23:35:00.441Z,9.45
2022-10-20T23:37:27.027Z,9.93
2022-10-20T23:39:53.659Z,9.57
2022-10-20T23:42:20.296Z,9.02
2022-10-20T23:44:46.927Z,10.15
2022-10-20T23:47:13.516Z,9.43
2022-10-20T23:49:40.099Z,9.00
2022-10-20T23:52:06.667Z,8.98
2022-10-20T23:54:33.325Z,10.77
2022-10-20T23:56:59.931Z,9.95
2022-10-20T23:59:26.534Z,10.43
